Time;durP1;ratioP1;P1;durP2;ratioP2;P2;SDS_P1;SDS_P2;PMS_P1;PMS_P2;Temp;Humidity;BMP_temperature;BMP_pressure;BME280_temperature;BME280_humidity;BME280_pressure;Samples;Min_cycle;Max_cycle;Signal;HPM_P1;HPM_P2
2023/05/07 00:00:07;;;;;;;5.53;3.60;;;;;;;;;;5032296;28;20206;-63
2023/05/07 00:02:37;;;;;;;3.97;3.57;;;;;;;;;;5053493;28;20287;-63
2023/05/07 00:05:05;;;;;;;3.50;3.20;;;;;;;;;;5037050;28;20294;-63
2023/05/07 00:07:32;;;;;;;4.63;3.33;;;;;;;;;;5043883;28;20266;-63
2023/05/07 00:10:00;;;;;;;3.13;2.83;;;;;;;;;;5033148;28;20652;-62
2023/05/07 00:12:27;;;;;;;3.67;3.00;;;;;;;;;;5063461;28;20567;-63
2023/05/07 00:14:55;;;;;;;3.83;2.77;;;;;;;;;;5031667;28;20198;-61
2023/05/07 00:17:22;;;;;;;5.93;2.93;;;;;;;;;;5056830;28;20628;-63
2023/05/07 00:19:49;;;;;;;3.23;2.93;;;;;;;;;;5050969;28;20209;-63
2023/05/07 00:22:17;;;;;;;3.30;2.60;;;;;;;;;;5058597;28;20208;-62
2023/05/07 00:24:44;;;;;;;4.17;3.30;;;;;;;;;;5062137;28;20235;-62
2023/05/07 00:27:12;;;;;;;3.67;3.30;;;;;;;;;;5055872;28;20234;-63
2023/05/07 00:29:39;;;;;;;3.47;3.20;;;;;;;;;;5050618;28;20285;-63
2023/05/07 00:32:06;;;;;;;4.17;3.23;;;;;;;;;;5057687;28;20245;-63
2023/05/07 00:34:34;;;;;;;3.60;3.33;;;;;;;;;;5056739;28;20202;-62
2023/05/07 00:37:02;;;;;;;5.07;3.53;;;;;;;;;;5057072;28;20229;-64
2023/05/07 00:39:32;;;;;;;3.40;3.10;;;;;;;;;;5055967;28;20679;-61
2023/05/07 00:42:00;;;;;;;3.93;3.53;;;;;;;;;;5036709;28;20292;-64
2023/05/07 00:44:28;;;;;;;4.13;3.40;;;;;;;;;;5041968;28;20205;-61
2023/05/07 00:46:56;;;;;;;4.03;3.73;;;;;;;;;;5054849;28;20229;-62
2023/05/07 00:49:27;;;;;;;4.10;3.80;;;;;;;;;;5056658;28;20232;-63
2023/05/07 00:51:55;;;;;;;4.97;3.70;;;;;;;;;;5049189;28;20238;-62
2023/05/07 00:54:22;;;;;;;5.23;4.73;;;;;;;;;;5058729;28;20256;-61
2023/05/07 00:56:50;;;;;;;4.13;3.83;;;;;;;;;;5033046;28;20308;-62
2023/05/07 00:59:18;;;;;;;4.43;4.03;;;;;;;;;;5056646;28;20617;-63
2023/05/07 01:01:45;;;;;;;6.23;5.33;;;;;;;;;;5026845;28;20300;-61
2023/05/07 01:04:13;;;;;;;6.30;4.70;;;;;;;;;;5058885;28;20236;-63
2023/05/07 01:06:41;;;;;;;5.93;4.90;;;;;;;;;;5046420;28;20233;-63
2023/05/07 01:09:09;;;;;;;5.20;4.70;;;;;;;;;;5052572;28;20202;-63
2023/05/07 01:11:36;;;;;;;5.00;4.50;;;;;;;;;;5057931;28;20263;-64
2023/05/07 01:14:04;;;;;;;4.70;4.30;;;;;;;;;;5054475;28;20230;-62
2023/05/07 01:16:32;;;;;;;4.27;3.90;;;;;;;;;;5060853;28;20255;-61
2023/05/07 01:19:00;;;;;;;4.10;3.80;;;;;;;;;;5035380;28;20209;-62
2023/05/07 01:21:32;;;;;;;5.77;4.07;;;;;;;;;;5036667;28;20205;-63
2023/05/07 01:23:59;;;;;;;5.07;4.30;;;;;;;;;;5036605;28;20365;-64
2023/05/07 01:26:27;;;;;;;4.53;4.00;;;;;;;;;;5036108;28;20286;-63
2023/05/07 01:28:54;;;;;;;5.07;4.37;;;;;;;;;;5057698;28;20267;-63
2023/05/07 01:31:22;;;;;;;6.57;4.50;;;;;;;;;;5038724;28;20267;-62
2023/05/07 01:33:50;;;;;;;7.20;4.80;;;;;;;;;;5053169;28;20307;-62
2023/05/07 01:36:19;;;;;;;10.63;5.40;;;;;;;;;;5039243;28;20665;-63
2023/05/07 01:38:47;;;;;;;8.27;5.83;;;;;;;;;;5048079;28;20297;-63
2023/05/07 01:41:14;;;;;;;7.00;4.90;;;;;;;;;;5032418;28;20202;-62
2023/05/07 01:43:43;;;;;;;5.27;4.77;;;;;;;;;;5060095;28;20202;-63
2023/05/07 01:46:11;;;;;;;7.43;5.03;;;;;;;;;;5050234;28;20631;-63
2023/05/07 01:48:38;;;;;;;4.77;4.07;;;;;;;;;;5056132;28;20205;-63
2023/05/07 01:51:06;;;;;;;4.13;3.83;;;;;;;;;;5058915;28;20214;-63
2023/05/07 01:53:37;;;;;;;5.93;5.43;;;;;;;;;;5052209;28;20210;-64
2023/05/07 01:56:05;;;;;;;5.90;4.80;;;;;;;;;;5033861;28;20717;-63
2023/05/07 01:58:32;;;;;;;5.70;4.87;;;;;;;;;;5052098;28;20221;-63
2023/05/07 02:01:01;;;;;;;4.90;4.50;;;;;;;;;;5037745;28;20260;-63
2023/05/07 02:03:28;;;;;;;5.90;5.40;;;;;;;;;;5039245;28;20263;-63
2023/05/07 02:05:55;;;;;;;5.00;4.50;;;;;;;;;;5035168;28;20232;-63
2023/05/07 02:08:23;;;;;;;5.33;4.57;;;;;;;;;;5048114;28;20304;-63
2023/05/07 02:10:53;;;;;;;4.70;4.30;;;;;;;;;;5052866;28;20237;-62
2023/05/07 02:13:22;;;;;;;4.10;3.80;;;;;;;;;;5052538;28;20251;-63
2023/05/07 02:15:50;;;;;;;4.63;3.90;;;;;;;;;;5062004;28;20221;-63
2023/05/07 02:18:17;;;;;;;3.93;3.60;;;;;;;;;;5048393;28;20275;-63
2023/05/07 02:20:45;;;;;;;4.00;3.70;;;;;;;;;;5033193;28;20296;-63
2023/05/07 02:23:12;;;;;;;4.20;3.80;;;;;;;;;;5034227;28;20293;-64
2023/05/07 02:25:40;;;;;;;5.57;4.50;;;;;;;;;;5041238;28;20267;-63
2023/05/07 02:28:07;;;;;;;4.77;4.37;;;;;;;;;;5054965;28;20301;-63
2023/05/07 02:30:35;;;;;;;4.43;4.13;;;;;;;;;;5054337;28;20198;-61
2023/05/07 02:33:03;;;;;;;4.83;4.27;;;;;;;;;;5039950;28;20217;-63
2023/05/07 02:35:30;;;;;;;5.07;4.57;;;;;;;;;;5045924;28;20201;-63
2023/05/07 02:37:58;;;;;;;5.83;4.40;;;;;;;;;;5058157;28;20246;-63
2023/05/07 02:40:25;;;;;;;4.97;4.53;;;;;;;;;;5029048;28;20671;-62
2023/05/07 02:42:53;;;;;;;4.60;4.20;;;;;;;;;;5034277;28;20223;-62
2023/05/07 02:45:20;;;;;;;4.30;4.00;;;;;;;;;;5057585;28;20201;-63
2023/05/07 02:47:48;;;;;;;4.97;4.20;;;;;;;;;;5058803;28;20283;-63
2023/05/07 02:50:16;;;;;;;4.90;4.40;;;;;;;;;;5040228;28;20247;-64
2023/05/07 02:52:43;;;;;;;6.53;5.07;;;;;;;;;;5035208;28;20213;-64
2023/05/07 02:55:10;;;;;;;6.60;5.37;;;;;;;;;;5062437;28;20206;-63
2023/05/07 02:57:38;;;;;;;5.13;4.63;;;;;;;;;;5032425;28;20217;-63
2023/05/07 03:00:23;;;;;;;7.17;4.93;;;;;;;;;;5039155;28;20301;-61
2023/05/07 03:02:50;;;;;;;6.00;4.77;;;;;;;;;;5046509;28;20340;-63
2023/05/07 03:05:18;;;;;;;6.23;4.57;;;;;;;;;;5062045;28;20233;-62
2023/05/07 03:07:47;;;;;;;4.97;4.53;;;;;;;;;;5039650;28;20295;-62
2023/05/07 03:10:15;;;;;;;9.37;7.70;;;;;;;;;;5043541;28;20209;-64
2023/05/07 03:12:42;;;;;;;5.37;4.87;;;;;;;;;;5057279;28;20202;-63
2023/05/07 03:15:12;;;;;;;4.43;4.03;;;;;;;;;;5033386;28;20205;-63
2023/05/07 03:17:40;;;;;;;6.70;5.50;;;;;;;;;;5040867;28;20682;-63
2023/05/07 03:20:09;;;;;;;7.03;6.17;;;;;;;;;;5056320;28;20291;-63
2023/05/07 03:22:37;;;;;;;8.00;6.27;;;;;;;;;;5036280;28;20293;-62
2023/05/07 03:25:05;;;;;;;8.00;6.27;;;;;;;;;;5041757;28;20283;-62
2023/05/07 03:27:32;;;;;;;6.57;5.77;;;;;;;;;;5033215;28;20473;-63
2023/05/07 03:30:00;;;;;;;7.00;6.07;;;;;;;;;;5038266;28;20208;-63
2023/05/07 03:32:28;;;;;;;7.07;5.20;;;;;;;;;;5053448;28;20259;-63
2023/05/07 03:34:55;;;;;;;6.97;5.27;;;;;;;;;;5038179;28;20205;-62
2023/05/07 03:37:23;;;;;;;5.50;5.00;;;;;;;;;;5058809;28;20317;-63
2023/05/07 03:39:50;;;;;;;7.13;6.10;;;;;;;;;;5033295;28;20216;-64
2023/05/07 03:42:18;;;;;;;6.53;5.17;;;;;;;;;;5059845;28;20210;-63
2023/05/07 03:44:46;;;;;;;6.20;5.60;;;;;;;;;;5050020;28;20232;-61
2023/05/07 03:47:13;;;;;;;5.70;5.00;;;;;;;;;;5052343;28;20332;-64
2023/05/07 03:49:40;;;;;;;6.07;5.47;;;;;;;;;;5053136;28;20263;-63
2023/05/07 03:52:08;;;;;;;5.80;5.07;;;;;;;;;;5034397;28;20308;-62
2023/05/07 03:54:36;;;;;;;5.67;5.10;;;;;;;;;;5028689;28;20872;-61
2023/05/07 03:57:03;;;;;;;6.13;5.03;;;;;;;;;;5036890;28;20295;-63
2023/05/07 03:59:31;;;;;;;5.83;5.33;;;;;;;;;;5032916;28;20228;-64
2023/05/07 04:01:58;;;;;;;6.47;5.40;;;;;;;;;;5052671;28;20203;-63
2023/05/07 04:04:26;;;;;;;7.53;5.63;;;;;;;;;;5043080;28;20277;-64
2023/05/07 04:06:54;;;;;;;5.93;5.23;;;;;;;;;;5037338;28;20230;-63
2023/05/07 04:09:21;;;;;;;7.57;5.40;;;;;;;;;;5058573;28;20609;-62
2023/05/07 04:11:48;;;;;;;6.03;5.40;;;;;;;;;;5036978;28;20205;-63
2023/05/07 04:14:16;;;;;;;7.00;5.03;;;;;;;;;;5051725;28;20218;-63
2023/05/07 04:16:43;;;;;;;6.10;5.47;;;;;;;;;;5038051;28;20261;-63
2023/05/07 04:19:11;;;;;;;5.97;5.27;;;;;;;;;;5051996;28;20671;-64
2023/05/07 04:21:38;;;;;;;4.87;4.47;;;;;;;;;;5037266;28;20201;-64
2023/05/07 04:24:06;;;;;;;4.70;4.30;;;;;;;;;;5056259;28;20225;-63
2023/05/07 04:26:33;;;;;;;6.10;4.23;;;;;;;;;;5051908;28;20241;-64
2023/05/07 04:29:01;;;;;;;6.77;4.70;;;;;;;;;;5039634;28;20205;-63
2023/05/07 04:31:28;;;;;;;13.07;9.80;;;;;;;;;;5052049;28;20297;-63
2023/05/07 04:33:56;;;;;;;13.87;10.10;;;;;;;;;;5048848;28;20304;-63
2023/05/07 04:36:27;;;;;;;8.30;6.87;;;;;;;;;;5055276;28;20222;-64
2023/05/07 04:38:55;;;;;;;7.13;6.47;;;;;;;;;;5070329;28;20212;-62
2023/05/07 04:41:22;;;;;;;11.77;10.07;;;;;;;;;;5058520;28;20217;-63
2023/05/07 04:43:50;;;;;;;13.40;9.13;;;;;;;;;;5045579;28;20208;-63
2023/05/07 04:46:17;;;;;;;7.77;6.97;;;;;;;;;;5058200;28;20237;-64
2023/05/07 04:48:45;;;;;;;9.13;7.97;;;;;;;;;;5049596;28;20585;-63
2023/05/07 04:51:12;;;;;;;7.80;7.00;;;;;;;;;;5054088;28;20683;-63
2023/05/07 04:53:40;;;;;;;6.60;5.53;;;;;;;;;;5037604;28;20221;-63
2023/05/07 04:56:07;;;;;;;5.77;5.30;;;;;;;;;;5049003;28;20230;-64
2023/05/07 04:58:35;;;;;;;5.97;5.47;;;;;;;;;;5026796;28;20208;-64
2023/05/07 05:01:03;;;;;;;6.00;5.40;;;;;;;;;;5048306;28;20233;-62
2023/05/07 05:03:30;;;;;;;6.40;5.70;;;;;;;;;;5051521;28;20202;-63
2023/05/07 05:05:59;;;;;;;6.40;5.80;;;;;;;;;;5046662;28;20242;-62
2023/05/07 05:08:27;;;;;;;7.63;5.70;;;;;;;;;;5038863;28;20282;-62
2023/05/07 05:10:57;;;;;;;5.97;5.57;;;;;;;;;;5031510;28;20663;-62
2023/05/07 05:13:24;;;;;;;5.20;4.70;;;;;;;;;;5038976;28;20217;-63
2023/05/07 05:15:52;;;;;;;5.30;4.80;;;;;;;;;;5052841;28;20232;-63
2023/05/07 05:21:17;;;;;;;5.87;5.27;;;;;;;;;;5052153;28;20341;-63
2023/05/07 05:23:45;;;;;;;5.97;5.27;;;;;;;;;;5053824;28;20237;-64
2023/05/07 05:26:13;;;;;;;5.57;5.07;;;;;;;;;;5059737;28;20233;-64
2023/05/07 05:28:44;;;;;;;4.93;4.47;;;;;;;;;;5052415;28;20254;-63
2023/05/07 05:31:12;;;;;;;3.67;3.42;;;;;;;;;;5039790;28;20513;-63
2023/05/07 05:33:39;;;;;;;3.58;3.28;;;;;;;;;;5031314;28;20279;-63
2023/05/07 05:36:09;;;;;;;4.07;3.50;;;;;;;;;;5050835;28;20223;-62
2023/05/07 05:38:37;;;;;;;7.05;5.25;;;;;;;;;;5037254;28;20672;-63
2023/05/07 05:41:04;;;;;;;4.25;3.85;;;;;;;;;;5033445;28;20210;-62
2023/05/07 05:43:32;;;;;;;3.28;3.08;;;;;;;;;;5036449;28;20209;-62
2023/05/07 05:46:00;;;;;;;3.67;3.30;;;;;;;;;;5025488;28;20695;-63
2023/05/07 05:48:29;;;;;;;13.38;8.80;;;;;;;;;;5041776;28;20737;-62
2023/05/07 05:50:56;;;;;;;2.50;2.40;;;;;;;;;;5049720;28;20206;-62
2023/05/07 05:53:24;;;;;;;2.80;2.58;;;;;;;;;;5032359;28;20237;-64
2023/05/07 05:55:51;;;;;;;3.00;2.70;;;;;;;;;;5034897;28;20804;-64
2023/05/07 05:58:19;;;;;;;3.50;3.20;;;;;;;;;;5031653;28;23443;-61
2023/05/07 06:00:48;;;;;;;3.65;3.10;;;;;;;;;;5036609;28;20201;-64
2023/05/07 06:03:15;;;;;;;3.83;3.45;;;;;;;;;;5025158;28;20310;-62
2023/05/07 06:05:42;;;;;;;4.00;3.60;;;;;;;;;;5052855;28;20213;-63
2023/05/07 06:08:10;;;;;;;5.13;3.92;;;;;;;;;;5034541;28;20238;-62
2023/05/07 06:10:38;;;;;;;4.68;4.07;;;;;;;;;;5039064;28;20628;-64
2023/05/07 06:13:05;;;;;;;3.58;3.30;;;;;;;;;;5039662;28;20205;-63
2023/05/07 06:15:33;;;;;;;3.80;3.40;;;;;;;;;;5043502;28;20226;-63
2023/05/07 06:18:01;;;;;;;5.15;3.55;;;;;;;;;;5053857;28;20629;-63
2023/05/07 06:20:29;;;;;;;5.10;4.40;;;;;;;;;;5056882;28;20205;-63
2023/05/07 06:22:56;;;;;;;4.32;3.85;;;;;;;;;;5028967;28;20216;-63
2023/05/07 06:25:23;;;;;;;4.22;3.92;;;;;;;;;;5060671;28;20288;-63
2023/05/07 06:27:51;;;;;;;5.05;4.15;;;;;;;;;;5046450;28;20221;-62
2023/05/07 06:30:18;;;;;;;4.35;4.05;;;;;;;;;;5056980;28;20654;-63
2023/05/07 06:32:46;;;;;;;4.57;4.18;;;;;;;;;;5058657;28;20198;-63
2023/05/07 06:35:13;;;;;;;4.53;4.00;;;;;;;;;;5053879;28;20671;-62
2023/05/07 06:37:42;;;;;;;4.55;4.10;;;;;;;;;;5039274;28;20206;-63
2023/05/07 06:40:10;;;;;;;4.38;3.97;;;;;;;;;;5060273;28;20233;-64
2023/05/07 06:42:38;;;;;;;4.47;4.07;;;;;;;;;;5056218;28;20218;-64
2023/05/07 06:45:06;;;;;;;4.40;3.95;;;;;;;;;;5055783;28;20219;-63
2023/05/07 06:47:34;;;;;;;4.00;3.70;;;;;;;;;;5039216;28;20221;-63
2023/05/07 06:50:02;;;;;;;5.35;3.70;;;;;;;;;;5032188;28;21939;-63
2023/05/07 06:52:29;;;;;;;4.28;3.97;;;;;;;;;;5039389;28;20264;-62
2023/05/07 06:54:56;;;;;;;3.80;3.50;;;;;;;;;;5025773;28;20321;-63
2023/05/07 06:57:24;;;;;;;3.60;3.30;;;;;;;;;;5037339;28;20230;-62
2023/05/07 06:59:52;;;;;;;3.97;3.63;;;;;;;;;;5051471;28;20565;-61
2023/05/07 07:02:19;;;;;;;4.80;4.20;;;;;;;;;;5045849;28;20237;-65
2023/05/07 07:04:46;;;;;;;4.53;3.47;;;;;;;;;;5038453;28;20198;-64
2023/05/07 07:07:14;;;;;;;3.88;3.50;;;;;;;;;;5047026;28;20283;-64
2023/05/07 07:09:41;;;;;;;5.05;3.70;;;;;;;;;;5043412;28;20877;-64
2023/05/07 07:12:09;;;;;;;3.67;3.38;;;;;;;;;;5031662;28;20232;-63
2023/05/07 07:14:36;;;;;;;4.15;3.85;;;;;;;;;;5055901;28;20681;-62
2023/05/07 07:17:06;;;;;;;5.00;3.90;;;;;;;;;;5046309;28;20225;-64
2023/05/07 07:19:33;;;;;;;3.67;3.38;;;;;;;;;;5061980;28;20658;-64
2023/05/07 07:22:00;;;;;;;4.20;3.80;;;;;;;;;;5056796;28;21039;-64
2023/05/07 07:24:28;;;;;;;3.63;3.33;;;;;;;;;;5055108;28;20815;-63
2023/05/07 07:26:55;;;;;;;3.50;3.20;;;;;;;;;;5049640;28;20234;-63
2023/05/07 07:29:26;;;;;;;3.28;3.05;;;;;;;;;;5056714;28;20588;-62
2023/05/07 07:31:53;;;;;;;3.33;3.00;;;;;;;;;;5032095;28;21155;-63
2023/05/07 07:34:21;;;;;;;4.13;3.33;;;;;;;;;;5032010;28;20214;-62
2023/05/07 07:36:49;;;;;;;2.80;2.60;;;;;;;;;;5023613;28;20229;-62
2023/05/07 07:39:17;;;;;;;3.55;3.03;;;;;;;;;;5032543;28;21227;-63
2023/05/07 07:41:46;;;;;;;3.42;3.10;;;;;;;;;;5054187;28;20198;-62
2023/05/07 07:44:14;;;;;;;3.70;2.53;;;;;;;;;;5053079;28;20701;-63
2023/05/07 07:46:42;;;;;;;2.80;2.60;;;;;;;;;;5049245;28;20236;-63
2023/05/07 07:49:10;;;;;;;3.60;2.50;;;;;;;;;;5032135;28;20432;-64
2023/05/07 07:51:37;;;;;;;3.25;2.33;;;;;;;;;;5034137;28;20213;-62
2023/05/07 07:54:06;;;;;;;3.00;2.30;;;;;;;;;;5039646;28;20679;-63
2023/05/07 07:56:35;;;;;;;3.85;2.45;;;;;;;;;;5031559;28;20234;-63
2023/05/07 07:59:02;;;;;;;2.55;2.35;;;;;;;;;;5028019;28;20210;-64
2023/05/07 08:01:30;;;;;;;3.67;2.38;;;;;;;;;;5033611;28;20688;-62
2023/05/07 08:03:58;;;;;;;3.45;2.10;;;;;;;;;;5046647;28;20667;-63
2023/05/07 08:06:26;;;;;;;5.80;2.30;;;;;;;;;;5043900;28;20229;-60
2023/05/07 08:08:54;;;;;;;2.72;2.30;;;;;;;;;;5045634;28;20233;-63
2023/05/07 08:11:22;;;;;;;2.10;1.90;;;;;;;;;;5048519;28;20213;-62
2023/05/07 08:13:50;;;;;;;2.90;2.20;;;;;;;;;;5054123;28;20300;-63
2023/05/07 08:16:17;;;;;;;3.03;2.35;;;;;;;;;;5045475;28;20230;-63
2023/05/07 08:18:45;;;;;;;2.50;2.30;;;;;;;;;;5048319;28;20202;-64
2023/05/07 08:21:13;;;;;;;3.13;2.20;;;;;;;;;;5044903;28;20230;-65
2023/05/07 08:23:40;;;;;;;2.30;2.10;;;;;;;;;;5033919;28;20900;-64
2023/05/07 08:26:09;;;;;;;2.78;2.25;;;;;;;;;;5034386;28;20319;-65
2023/05/07 08:28:37;;;;;;;2.42;2.17;;;;;;;;;;5051316;28;20221;-61
2023/05/07 08:31:06;;;;;;;2.33;2.20;;;;;;;;;;5032826;28;20205;-63
2023/05/07 08:33:33;;;;;;;2.78;2.22;;;;;;;;;;5060439;28;20559;-63
2023/05/07 08:36:01;;;;;;;2.60;2.40;;;;;;;;;;5056144;28;20240;-62
2023/05/07 08:38:28;;;;;;;3.28;2.40;;;;;;;;;;5052168;28;20309;-61
2023/05/07 08:40:57;;;;;;;3.00;2.00;;;;;;;;;;5038106;28;20248;-63
2023/05/07 08:43:27;;;;;;;2.40;2.20;;;;;;;;;;5038776;28;20220;-64
2023/05/07 08:45:55;;;;;;;2.50;2.30;;;;;;;;;;5051657;28;20578;-62
2023/05/07 08:48:26;;;;;;;3.97;2.28;;;;;;;;;;5042211;28;20257;-63
2023/05/07 08:50:53;;;;;;;2.45;2.00;;;;;;;;;;5046748;28;20210;-63
2023/05/07 08:53:22;;;;;;;2.00;1.83;;;;;;;;;;5032145;28;20271;-62
2023/05/07 08:55:49;;;;;;;2.22;1.98;;;;;;;;;;5040466;28;20305;-63
2023/05/07 08:58:17;;;;;;;2.53;1.95;;;;;;;;;;5046744;28;20202;-61
2023/05/07 09:00:46;;;;;;;5.97;3.53;;;;;;;;;;5059169;28;20641;-64
2023/05/07 09:03:14;;;;;;;4.13;1.83;;;;;;;;;;5045024;28;20674;-63
2023/05/07 09:05:43;;;;;;;2.15;1.90;;;;;;;;;;5057702;28;20230;-63
2023/05/07 09:08:11;;;;;;;2.22;1.88;;;;;;;;;;5062227;28;20264;-66
2023/05/07 09:10:38;;;;;;;1.90;1.80;;;;;;;;;;5043498;28;20201;-64
2023/05/07 09:13:10;;;;;;;3.58;2.15;;;;;;;;;;5036833;28;20207;-64
2023/05/07 09:15:38;;;;;;;2.03;1.92;;;;;;;;;;5040273;28;20268;-63
2023/05/07 09:18:07;;;;;;;2.20;2.00;;;;;;;;;;5058096;28;20278;-63
2023/05/07 09:20:37;;;;;;;3.15;1.73;;;;;;;;;;5041873;28;20217;-63
2023/05/07 09:23:04;;;;;;;2.38;1.90;;;;;;;;;;5044252;28;20214;-62
2023/05/07 09:25:32;;;;;;;2.00;1.80;;;;;;;;;;5040424;28;20309;-63
2023/05/07 09:28:03;;;;;;;2.70;1.90;;;;;;;;;;5040350;28;20725;-64
2023/05/07 09:30:34;;;;;;;2.15;1.90;;;;;;;;;;5062356;28;20667;-63
2023/05/07 09:33:03;;;;;;;2.03;1.75;;;;;;;;;;5044127;28;20733;-63
2023/05/07 09:35:31;;;;;;;3.30;1.98;;;;;;;;;;5037327;28;20640;-62
2023/05/07 09:37:59;;;;;;;2.00;1.65;;;;;;;;;;5038036;28;20220;-65
2023/05/07 09:40:31;;;;;;;1.70;1.58;;;;;;;;;;5058872;28;20206;-64
2023/05/07 09:43:10;;;;;;;2.47;1.90;;;;;;;;;;5032754;28;20932;-62
2023/05/07 09:45:39;;;;;;;2.15;1.95;;;;;;;;;;5056362;28;20248;-61
2023/05/07 09:48:08;;;;;;;2.90;1.88;;;;;;;;;;5038400;28;20661;-63
2023/05/07 09:50:37;;;;;;;1.70;1.60;;;;;;;;;;5059943;28;20283;-64
2023/05/07 09:53:05;;;;;;;2.70;1.67;;;;;;;;;;5042327;28;20213;-64
2023/05/07 09:55:32;;;;;;;2.15;1.95;;;;;;;;;;5043097;28;20278;-64
2023/05/07 09:58:02;;;;;;;1.80;1.70;;;;;;;;;;5040886;28;20205;-62
2023/05/07 10:00:30;;;;;;;2.10;1.88;;;;;;;;;;5026608;28;20210;-63
2023/05/07 10:03:02;;;;;;;3.13;1.88;;;;;;;;;;5055493;28;20241;-63
2023/05/07 10:05:32;;;;;;;2.92;2.17;;;;;;;;;;5055114;28;20727;-64
2023/05/07 10:08:00;;;;;;;2.20;2.10;;;;;;;;;;5056190;28;20699;-63
2023/05/07 10:10:31;;;;;;;4.28;3.90;;;;;;;;;;5039160;28;20210;-65
2023/05/07 10:12:59;;;;;;;3.03;2.60;;;;;;;;;;5060169;28;20209;-65
2023/05/07 10:15:26;;;;;;;3.95;3.65;;;;;;;;;;5036533;28;20239;-64
2023/05/07 10:17:54;;;;;;;1.80;1.70;;;;;;;;;;5022684;28;20224;-62
2023/05/07 10:20:22;;;;;;;2.75;1.90;;;;;;;;;;5043016;28;20208;-64
2023/05/07 10:22:51;;;;;;;2.50;1.80;;;;;;;;;;5038529;28;20681;-63
2023/05/07 10:25:44;;;;;;;2.88;1.75;;;;;;;;;;5033904;28;20331;-64
2023/05/07 10:28:12;;;;;;;2.95;2.00;;;;;;;;;;5052670;28;20221;-64
2023/05/07 10:30:54;;;;;;;2.00;1.90;;;;;;;;;;5040920;28;20296;-62
2023/05/07 10:33:24;;;;;;;2.45;2.20;;;;;;;;;;5041768;28;20205;-63
2023/05/07 10:35:51;;;;;;;2.08;1.90;;;;;;;;;;5054558;28;20292;-64
2023/05/07 10:38:19;;;;;;;2.65;1.70;;;;;;;;;;5043187;28;20478;-63
2023/05/07 10:40:46;;;;;;;2.20;2.00;;;;;;;;;;5048401;28;20209;-63
2023/05/07 10:43:14;;;;;;;2.40;1.88;;;;;;;;;;5034471;28;20288;-62
2023/05/07 10:45:43;;;;;;;1.92;1.70;;;;;;;;;;5056276;28;20221;-63
2023/05/07 10:48:16;;;;;;;2.20;2.00;;;;;;;;;;5039675;28;20317;-63
2023/05/07 10:51:15;;;;;;;3.75;1.77;;;;;;;;;;5043271;28;20213;-63
2023/05/07 10:53:42;;;;;;;3.53;1.73;;;;;;;;;;5059980;28;20253;-63
2023/05/07 10:56:18;;;;;;;2.22;1.80;;;;;;;;;;5063983;28;20233;-63
2023/05/07 10:58:46;;;;;;;3.25;2.00;;;;;;;;;;5056353;28;20209;-64
2023/05/07 11:01:14;;;;;;;2.10;2.00;;;;;;;;;;5059277;28;20288;-64
2023/05/07 11:04:14;;;;;;;3.00;2.00;;;;;;;;;;5042122;28;21681;-64
2023/05/07 11:06:42;;;;;;;1.80;1.70;;;;;;;;;;5014436;28;20233;-63
2023/05/07 11:09:09;;;;;;;2.45;2.20;;;;;;;;;;5072132;28;20229;-64
2023/05/07 11:11:55;;;;;;;2.53;1.90;;;;;;;;;;5065718;28;20243;-63
2023/05/07 11:14:58;;;;;;;2.10;1.90;;;;;;;;;;5062681;28;20398;-64
2023/05/07 11:17:26;;;;;;;3.22;1.80;;;;;;;;;;5000491;28;20662;-66
2023/05/07 11:19:55;;;;;;;2.03;1.90;;;;;;;;;;5038945;28;20311;-63
2023/05/07 11:22:36;;;;;;;2.35;2.00;;;;;;;;;;5038085;28;20205;-63
2023/05/07 11:25:05;;;;;;;2.08;1.88;;;;;;;;;;5054379;28;20335;-66
2023/05/07 11:27:33;;;;;;;2.30;1.88;;;;;;;;;;5033314;28;20741;-65
2023/05/07 11:30:01;;;;;;;2.20;1.95;;;;;;;;;;5041395;28;20229;-63
2023/05/07 11:32:29;;;;;;;2.28;2.08;;;;;;;;;;5059852;28;20338;-63
2023/05/07 11:34:58;;;;;;;2.47;2.00;;;;;;;;;;5060427;28;20283;-63
2023/05/07 11:37:26;;;;;;;2.00;1.83;;;;;;;;;;5038311;28;20637;-63
2023/05/07 11:40:07;;;;;;;3.38;2.67;;;;;;;;;;5059347;28;20446;-63
2023/05/07 11:42:36;;;;;;;2.88;2.65;;;;;;;;;;5038612;28;20232;-63
2023/05/07 11:45:03;;;;;;;3.50;2.33;;;;;;;;;;5037122;28;20370;-63
2023/05/07 11:47:31;;;;;;;2.25;2.00;;;;;;;;;;5042084;28;20254;-64
2023/05/07 11:50:03;;;;;;;2.75;2.10;;;;;;;;;;5061264;28;20229;-64
2023/05/07 11:52:31;;;;;;;2.30;2.10;;;;;;;;;;5054822;28;21177;-64
2023/05/07 11:55:00;;;;;;;5.47;2.70;;;;;;;;;;5050963;28;20347;-63
2023/05/07 11:57:29;;;;;;;5.43;2.95;;;;;;;;;;5049254;28;20294;-63
2023/05/07 12:00:16;;;;;;;3.83;2.80;;;;;;;;;;5036685;28;20210;-64
2023/05/07 12:02:45;;;;;;;3.28;2.97;;;;;;;;;;5033230;28;20214;-63
2023/05/07 12:05:13;;;;;;;6.60;4.50;;;;;;;;;;5039942;28;20247;-65
2023/05/07 12:07:41;;;;;;;3.97;2.72;;;;;;;;;;5052945;28;20237;-64
2023/05/07 12:10:09;;;;;;;2.65;2.45;;;;;;;;;;5046275;28;20222;-63
2023/05/07 12:12:41;;;;;;;4.53;2.83;;;;;;;;;;5050238;28;20691;-63
2023/05/07 12:15:10;;;;;;;3.05;2.78;;;;;;;;;;5051667;28;20303;-62
2023/05/07 12:17:40;;;;;;;3.25;2.55;;;;;;;;;;5027888;28;20603;-65
2023/05/07 12:20:08;;;;;;;3.90;2.95;;;;;;;;;;5044895;28;20713;-67
2023/05/07 12:22:36;;;;;;;4.90;3.50;;;;;;;;;;5027827;28;20216;-63
2023/05/07 12:25:03;;;;;;;3.95;3.30;;;;;;;;;;5039280;28;20266;-64
2023/05/07 12:27:31;;;;;;;5.00;2.80;;;;;;;;;;5028742;28;20229;-65
2023/05/07 12:30:04;;;;;;;3.40;3.10;;;;;;;;;;5042850;28;20777;-64
2023/05/07 12:32:36;;;;;;;2.70;2.30;;;;;;;;;;5027042;28;20594;-63
2023/05/07 12:35:06;;;;;;;3.30;2.97;;;;;;;;;;5034433;28;20206;-64
2023/05/07 12:37:33;;;;;;;2.70;2.50;;;;;;;;;;5041519;28;20715;-63
2023/05/07 12:40:11;;;;;;;3.22;2.55;;;;;;;;;;5024359;28;20205;-64
2023/05/07 12:42:42;;;;;;;2.80;2.60;;;;;;;;;;5032591;28;21430;-64
2023/05/07 12:45:12;;;;;;;4.28;2.85;;;;;;;;;;5049529;28;20217;-62
2023/05/07 12:47:44;;;;;;;2.70;2.50;;;;;;;;;;5035703;28;21609;-63
2023/05/07 12:50:13;;;;;;;3.05;2.70;;;;;;;;;;5044334;28;20551;-62
2023/05/07 12:52:41;;;;;;;2.50;2.30;;;;;;;;;;5030035;28;20233;-64
2023/05/07 12:55:09;;;;;;;5.68;3.85;;;;;;;;;;5039432;28;20206;-63
2023/05/07 12:57:41;;;;;;;3.92;3.00;;;;;;;;;;5050531;28;20943;-63
2023/05/07 13:00:09;;;;;;;2.97;2.70;;;;;;;;;;5029205;28;20214;-63
2023/05/07 13:02:40;;;;;;;2.95;2.53;;;;;;;;;;5033327;28;20305;-64
2023/05/07 13:05:09;;;;;;;5.75;2.90;;;;;;;;;;5047967;28;20604;-64
2023/05/07 13:07:37;;;;;;;4.75;2.33;;;;;;;;;;5048285;28;20217;-63
2023/05/07 13:10:05;;;;;;;3.35;2.40;;;;;;;;;;5040381;28;20226;-63
2023/05/07 13:12:32;;;;;;;3.50;2.40;;;;;;;;;;5030108;28;20217;-64
2023/05/07 13:15:00;;;;;;;4.30;2.22;;;;;;;;;;5027981;28;20675;-64
2023/05/07 13:17:27;;;;;;;2.53;2.13;;;;;;;;;;5032060;28;20226;-63
2023/05/07 13:19:55;;;;;;;4.47;2.20;;;;;;;;;;5052499;28;20628;-63
2023/05/07 13:22:23;;;;;;;2.53;2.33;;;;;;;;;;5054276;28;20221;-64
2023/05/07 13:24:50;;;;;;;2.83;2.50;;;;;;;;;;5043818;28;20204;-63
2023/05/07 13:27:19;;;;;;;2.50;2.30;;;;;;;;;;5045669;28;20733;-64
2023/05/07 13:29:46;;;;;;;2.60;2.40;;;;;;;;;;5029810;28;20554;-64
2023/05/07 13:32:14;;;;;;;5.13;2.70;;;;;;;;;;5053994;28;20256;-63
2023/05/07 13:34:41;;;;;;;4.13;2.70;;;;;;;;;;5049130;28;20206;-64
2023/05/07 13:37:09;;;;;;;3.42;2.53;;;;;;;;;;5033266;28;20272;-63
2023/05/07 13:39:38;;;;;;;6.95;3.42;;;;;;;;;;5049606;28;20203;-63
2023/05/07 13:42:05;;;;;;;9.70;6.13;;;;;;;;;;5035333;28;20215;-62
2023/05/07 13:44:33;;;;;;;3.85;2.53;;;;;;;;;;5030719;28;20210;-63
2023/05/07 13:47:04;;;;;;;3.42;3.03;;;;;;;;;;5034753;28;20248;-63
2023/05/07 13:49:31;;;;;;;3.08;2.70;;;;;;;;;;5046048;28;20256;-63
2023/05/07 13:51:59;;;;;;;4.07;2.70;;;;;;;;;;5021841;28;20636;-63
2023/05/07 13:54:26;;;;;;;2.40;2.20;;;;;;;;;;5050109;28;20300;-63
2023/05/07 13:56:54;;;;;;;3.22;2.38;;;;;;;;;;5052379;28;20283;-64
2023/05/07 13:59:25;;;;;;;2.88;2.60;;;;;;;;;;5052654;28;20206;-63
2023/05/07 14:01:54;;;;;;;4.90;4.60;;;;;;;;;;5055210;28;20329;-63
2023/05/07 14:04:22;;;;;;;2.55;2.35;;;;;;;;;;5026061;28;20308;-64
2023/05/07 14:06:49;;;;;;;2.63;2.40;;;;;;;;;;5019581;28;20237;-63
2023/05/07 14:09:17;;;;;;;3.45;2.47;;;;;;;;;;5044545;28;20707;-64
2023/05/07 14:11:45;;;;;;;2.75;2.40;;;;;;;;;;5044182;28;20259;-64
2023/05/07 14:14:13;;;;;;;2.50;2.30;;;;;;;;;;5024884;28;20205;-65
2023/05/07 14:16:40;;;;;;;2.63;2.42;;;;;;;;;;5017231;28;20773;-64
2023/05/07 14:19:08;;;;;;;3.92;2.40;;;;;;;;;;5045835;28;20277;-63
2023/05/07 14:21:37;;;;;;;3.33;2.60;;;;;;;;;;5033948;28;20198;-64
2023/05/07 14:24:07;;;;;;;9.93;5.35;;;;;;;;;;5049778;28;20229;-63
2023/05/07 14:26:36;;;;;;;3.38;3.05;;;;;;;;;;5036610;28;20233;-63
2023/05/07 14:29:03;;;;;;;7.77;3.97;;;;;;;;;;5039465;28;20209;-64
2023/05/07 14:31:31;;;;;;;9.07;5.15;;;;;;;;;;5054487;28;20715;-62
2023/05/07 14:33:59;;;;;;;7.80;4.97;;;;;;;;;;5038298;28;20213;-65
2023/05/07 14:36:27;;;;;;;18.83;10.93;;;;;;;;;;5049841;28;20311;-64
2023/05/07 14:38:54;;;;;;;6.50;3.30;;;;;;;;;;5054220;28;20234;-64
2023/05/07 14:41:22;;;;;;;24.37;11.07;;;;;;;;;;5054408;28;20209;-64
2023/05/07 14:43:50;;;;;;;8.50;4.17;;;;;;;;;;5048765;28;20232;-63
2023/05/07 14:46:20;;;;;;;13.43;7.67;;;;;;;;;;5048338;28;20259;-63
2023/05/07 14:48:48;;;;;;;3.67;2.93;;;;;;;;;;5032680;28;21351;-63
2023/05/07 14:51:15;;;;;;;5.65;3.22;;;;;;;;;;5033844;28;20288;-63
2023/05/07 14:53:43;;;;;;;3.90;3.60;;;;;;;;;;5071174;28;20209;-63